Wellington, Nevada
Current Conditions -  °F | °C
As of 2:35 AM on Saturday 25 Oct 2014 (Local Time) from KMEV Reporting Station
Clear Clear  
Wind Chill: 61°   Ceiling: Unl
Heat Index: 61°   Visibility: 10mi
Dew Point: 16°   Wind: 8mph
Humidity: 17%   Direction: 170°S
Pressure: 30"   Gusts: 23mph
Location:  38.75°N, 119.37°W
Report Text: KMEV 250935Z AUTO 17007G20KT 140V210 10SM CLR 16/M09 A3000 RMK AO2
Loading
Personal Weather Stations






























Interactive Weather Map
Tropical Storm Tracking
New forecast layout! Learn more

10-Day Weather Forecast

Advertisements
Track Severe Weather on mobile